createdAt,value
2017-05-17T00:00:12.001Z,4
2017-05-17T00:10:11.989Z,4
2017-05-17T00:20:11.986Z,4
2017-05-17T00:30:11.987Z,4
2017-05-17T00:40:11.970Z,4
2017-05-17T00:50:11.954Z,4
2017-05-17T01:00:11.937Z,4
2017-05-17T01:10:11.961Z,4
2017-05-17T01:20:11.970Z,4
2017-05-17T01:30:11.945Z,4
2017-05-17T01:40:11.970Z,4
2017-05-17T01:50:11.935Z,4
2017-05-17T02:00:11.947Z,4
2017-05-17T02:10:11.951Z,4
2017-05-17T02:20:11.948Z,4
2017-05-17T02:30:11.959Z,4
2017-05-17T02:40:11.946Z,4
2017-05-17T02:50:11.954Z,4
2017-05-17T03:00:11.969Z,4
2017-05-17T03:10:11.934Z,12
2017-05-17T03:20:11.942Z,28
2017-05-17T03:30:11.965Z,68
2017-05-17T03:40:11.943Z,168
2017-05-17T03:50:11.957Z,284
2017-05-17T04:00:11.953Z,472
2017-05-17T04:10:11.950Z,644
2017-05-17T04:20:11.954Z,780
2017-05-17T04:30:11.941Z,1012
2017-05-17T04:40:11.944Z,1704
2017-05-17T04:50:11.983Z,1828
2017-05-17T05:00:12.012Z,1768
2017-05-17T05:10:11.961Z,2200
2017-05-17T05:20:11.970Z,2880
2017-05-17T05:30:12.222Z,3856
2017-05-17T05:40:11.956Z,5768
2017-05-17T05:50:11.999Z,6844
2017-05-17T06:00:11.994Z,8600
2017-05-17T06:10:12.018Z,10164
2017-05-17T06:20:12.001Z,13856
2017-05-17T06:30:12.014Z,12764
2017-05-17T06:40:11.961Z,14924
2017-05-17T06:50:11.991Z,18912
2017-05-17T07:00:11.970Z,24448
2017-05-17T07:10:12.008Z,36992
2017-05-17T07:20:11.985Z,44928
2017-05-17T07:30:11.999Z,66656
2017-05-17T07:40:12.020Z,58144
2017-05-17T07:50:12.000Z,45856
2017-05-17T08:00:11.983Z,51776
2017-05-17T08:10:12.039Z,59392
2017-05-17T08:20:12.075Z,80512
2017-05-17T08:30:11.995Z,77504
2017-05-17T08:40:12.027Z,82464
2017-05-17T08:50:12.008Z,40992
2017-05-17T09:00:12.013Z,8708
2017-05-17T09:10:12.037Z,7916
2017-05-17T09:20:12.034Z,6880
2017-05-17T09:30:12.042Z,6348
2017-05-17T09:40:12.018Z,5620
2017-05-17T09:50:12.016Z,5416
2017-05-17T10:00:12.033Z,4904
2017-05-17T10:10:12.025Z,4920
2017-05-17T10:20:12.036Z,4840
2017-05-17T10:30:12.029Z,4568
2017-05-17T10:40:12.030Z,4752
2017-05-17T10:50:12.044Z,4396
2017-05-17T11:00:12.037Z,4332
2017-05-17T11:10:12.042Z,4064
2017-05-17T11:20:12.043Z,3768
2017-05-17T11:30:12.082Z,3868
2017-05-17T11:40:12.058Z,3668
2017-05-17T11:50:12.050Z,3688
2017-05-17T12:00:12.041Z,3872
2017-05-17T12:10:12.064Z,3872
2017-05-17T12:20:12.047Z,3856
2017-05-17T12:30:12.064Z,3844
2017-05-17T12:40:12.061Z,3640
2017-05-17T12:50:12.082Z,3728
2017-05-17T13:00:12.097Z,3700
2017-05-17T13:10:12.073Z,3524
2017-05-17T13:20:12.073Z,3592
2017-05-17T13:30:12.072Z,3480
2017-05-17T13:40:12.081Z,3392
2017-05-17T13:50:12.109Z,3336
2017-05-17T14:00:12.078Z,3296
2017-05-17T14:10:12.080Z,3332
2017-05-17T14:20:12.153Z,3376
2017-05-17T14:30:12.098Z,3452
2017-05-17T14:40:12.105Z,3424
2017-05-17T14:50:12.132Z,3364
2017-05-17T15:00:12.159Z,3364
2017-05-17T15:10:12.170Z,3500
2017-05-17T15:20:12.123Z,3632
2017-05-17T15:30:12.239Z,3544
2017-05-17T15:40:12.128Z,3752
2017-05-17T15:50:12.108Z,3764
2017-05-17T16:00:12.128Z,3688
2017-05-17T16:10:12.933Z,3668
2017-05-17T16:20:12.125Z,3616
2017-05-17T16:30:12.129Z,3424
2017-05-17T16:40:12.170Z,3296
2017-05-17T16:50:12.121Z,3200
2017-05-17T17:00:12.288Z,3160
2017-05-17T17:10:12.294Z,2964
2017-05-17T17:20:12.164Z,2888
2017-05-17T17:30:12.609Z,2704
2017-05-17T17:40:12.191Z,2348
2017-05-17T17:50:12.217Z,2220
2017-05-17T18:00:12.150Z,2276
2017-05-17T18:10:12.201Z,2200
2017-05-17T18:20:12.362Z,1844
2017-05-17T18:30:12.279Z,1580
2017-05-17T18:40:12.198Z,1376
2017-05-17T18:50:12.182Z,940
2017-05-17T19:00:12.222Z,580
2017-05-17T19:10:12.308Z,292
2017-05-17T19:20:12.267Z,128
2017-05-17T19:30:12.213Z,56
2017-05-17T19:40:12.298Z,20
2017-05-17T19:50:12.220Z,8
2017-05-17T20:00:12.164Z,4
2017-05-17T20:10:12.235Z,4
2017-05-17T20:20:12.183Z,4
2017-05-17T20:30:12.189Z,4
2017-05-17T20:40:12.394Z,4
2017-05-17T20:50:12.294Z,4
2017-05-17T21:00:12.230Z,4
2017-05-17T21:10:12.833Z,4
2017-05-17T21:20:12.273Z,4
2017-05-17T21:30:12.458Z,4
2017-05-17T21:40:12.294Z,4
2017-05-17T21:50:12.229Z,4
2017-05-17T22:00:12.250Z,4
2017-05-17T22:10:12.222Z,4
2017-05-17T22:20:12.321Z,4
2017-05-17T22:30:12.384Z,4
2017-05-17T22:40:12.240Z,4
2017-05-17T22:50:12.191Z,4
2017-05-17T23:00:12.244Z,4
2017-05-17T23:10:12.302Z,4
2017-05-17T23:20:12.292Z,4
2017-05-17T23:30:12.209Z,4
2017-05-17T23:40:12.317Z,4
2017-05-17T23:50:12.278Z,4
